Airfield :
LOGIN :

Register | Disclaimer

   EN    FR    IT 

 










Legend :    VFR   Marginal VFR   IFR   Intensive IFR   Very Intensive IFR
Visi :
Ceiling :
>= 8 km
>= 3000ft
5 to 8 km
1000 to 3000 ft
1500m to 5 km
500 to 1000 ft
800 to 1500m
200 to 500 ft
< 800m
< 200 ft
Symbols :   Thunderstorms  Fog  Heavy snow  Heavy precipitations  Wind > 20 kt
SIGMETs :     Misc.  Thunderstorms  Icing  Turbulence  Mountain Waves  Volcanic Ashes






- Airport Elevation : 319 ft


EIME - Casement Air Base

CURRENT METAR :
  • 132300Z 18008KT 9999 FEW030 SCT250 07/06 Q1006

EXPIRED METARs :
  • 132200Z 19007KT 9999 FEW030 SCT250 08/06 Q1005
  • 132100Z 20005KT 9999 FEW030 07/05 Q1005

TAF TAF EIME
Valid from the 14 at 00:00 until the 14 at 09:00 UTC


132300Z 1400/1409 19007KT 9999 FEW018 SCT030
BECMG 1400/1403 VRB03KT
BECMG 1403/1406 06007KT
TEMPO 1405/1409 5000 -RA BKN012
BECMG 1406/1408 13012KT
TEMPO 1408/1409 15015G25KT
PROB30
TEMPO 1406/1409 4000 RA BKN008 SCT020CB



MET'MAP, your aeronautical weather chart ! - Copyright ORBIFLY December 2007 - Disclaimer

ORBIFLY MET'MAP TEAM :

Programming & Development : Alexandra Zaïnal
Concept & Development : Baudouin d'Aumeries
Co-Development & Prog : Marc-Olivier Méhu
Technical & hardware support : Manuel Goepfert

Contact : metmap@orbifly.com




SOURCES & CREDITS :

   NOAA